Time;durP1;ratioP1;P1;durP2;ratioP2;P2;SDS_P1;SDS_P2;PMS_P1;PMS_P2;Temp;Humidity;BMP_temperature;BMP_pressure;BME280_temperature;BME280_humidity;BME280_pressure;Samples;Min_cycle;Max_cycle;Signal;HPM_P1;HPM_P2
2022/07/31 00:01:08;;;;;;;6.93;3.90;;;;;;;-145.18;100.00;46674.06;4990899;28;20475;-73
2022/07/31 00:03:34;;;;;;;8.77;4.93;;;;;;;-145.18;100.00;46677.97;4991166;28;20101;-73
2022/07/31 00:05:59;;;;;;;9.13;4.73;;;;;;;-145.18;100.00;46674.06;4990963;28;20034;-72
2022/07/31 00:08:24;;;;;;;8.83;4.77;;;;;;;-145.18;100.00;46662.34;4990158;28;20040;-72
2022/07/31 00:10:50;;;;;;;8.47;5.63;;;;;;;-145.18;100.00;46654.53;4991402;28;20042;-72
2022/07/31 00:13:15;;;;;;;11.70;4.90;;;;;;;-145.18;100.00;46650.63;4973270;28;20187;-72
2022/07/31 00:15:41;;;;;;;10.37;5.43;;;;;;;-145.18;100.00;46642.81;4991005;28;20046;-72
2022/07/31 00:18:07;;;;;;;11.67;5.77;;;;;;;-145.18;100.00;46642.81;4990262;28;20495;-72
2022/07/31 00:20:33;;;;;;;7.70;5.67;;;;;;;-145.18;100.00;46677.97;4991005;28;20041;-72
2022/07/31 00:22:58;;;;;;;12.20;6.40;;;;;;;-145.18;100.00;46638.91;4990655;28;20038;-73
2022/07/31 00:25:24;;;;;;;12.57;6.40;;;;;;;-145.18;100.00;46660.41;4991257;28;20502;-73
2022/07/31 00:27:50;;;;;;;10.13;6.50;;;;;;;-145.18;100.00;46660.41;4990663;28;20113;-73
2022/07/31 00:30:16;;;;;;;11.97;7.07;;;;;;;-145.18;100.00;46660.41;4973177;28;20042;-73
2022/07/31 00:32:42;;;;;;;9.10;5.83;;;;;;;-145.18;100.00;46677.97;4990816;28;20039;-72
2022/07/31 00:35:08;;;;;;;10.70;5.80;;;;;;;-145.18;100.00;46640.88;4990489;28;20030;-72
2022/07/31 00:37:36;;;;;;;8.53;6.10;;;;;;;-145.18;100.00;46638.91;4990784;28;20033;-72
2022/07/31 00:40:06;;;;;;;7.37;5.57;;;;;;;-145.18;100.00;46677.97;4990616;28;20034;-73
2022/07/31 00:42:32;;;;;;;8.03;5.57;;;;;;;-145.18;100.00;46676.03;4990705;28;20045;-72
2022/07/31 00:44:57;;;;;;;12.90;6.00;;;;;;;-145.18;100.00;46646.72;4990732;28;20125;-72
2022/07/31 00:47:23;;;;;;;8.93;5.73;;;;;;;-145.18;100.00;46677.97;4990213;28;20038;-72
2022/07/31 00:49:48;;;;;;;9.63;5.30;;;;;;;-145.18;100.00;46677.97;4990872;28;20042;-70
2022/07/31 00:52:13;;;;;;;8.97;5.10;;;;;;;-145.18;100.00;46644.78;4989994;28;20068;-70
2022/07/31 00:54:39;;;;;;;10.60;4.80;;;;;;;-145.18;100.00;46644.78;4990749;28;20100;-72
2022/07/31 00:57:05;;;;;;;9.37;5.20;;;;;;;-145.18;100.00;46648.69;4972479;28;20034;-70
2022/07/31 00:59:31;;;;;;;14.30;5.37;;;;;;;-145.18;100.00;46650.63;4990857;28;20026;-71
2022/07/31 01:01:57;;;;;;;9.67;5.57;;;;;;;-145.18;100.00;46656.50;4990008;28;20369;-71
2022/07/31 01:04:22;;;;;;;6.87;4.37;;;;;;;-145.18;100.00;46650.63;4990065;28;20069;-73
2022/07/31 01:06:48;;;;;;;9.57;5.00;;;;;;;-145.18;100.00;46644.78;4990256;28;20089;-72
2022/07/31 01:09:13;;;;;;;7.93;5.00;;;;;;;-145.18;100.00;46644.78;4990330;28;20105;-72
2022/07/31 01:12:36;;;;;;;13.37;5.07;;;;;;;-145.18;100.00;46640.88;4990123;28;20050;-72
2022/07/31 01:15:06;;;;;;;8.93;5.47;;;;;;;-145.18;100.00;46642.81;4911027;29;20044;-72
2022/07/31 01:17:33;;;;;;;12.00;4.87;;;;;;;-145.18;100.00;46642.81;4910892;29;20100;-72
2022/07/31 01:19:58;;;;;;;8.87;4.77;;;;;;;-145.18;100.00;46644.78;4952768;28;20375;-72
2022/07/31 01:22:42;;;;;;;7.70;5.20;;;;;;;-145.18;100.00;46640.88;4993909;28;20039;-72
2022/07/31 01:25:39;;;;;;;10.60;5.83;;;;;;;-145.18;100.00;46644.78;4994130;28;20113;-72
2022/07/31 01:28:33;;;;;;;11.43;4.97;;;;;;;-145.18;100.00;46640.88;4993467;28;20038;-71
2022/07/31 01:31:12;;;;;;;10.63;5.60;;;;;;;-145.18;100.00;46677.97;4976362;28;20411;-71
2022/07/31 01:33:50;;;;;;;11.20;5.73;;;;;;;-145.18;100.00;46638.91;4993862;28;20560;-71
2022/07/31 01:36:20;;;;;;;9.63;5.00;;;;;;;-145.18;100.00;46638.91;4993651;28;20124;-72
2022/07/31 01:38:54;;;;;;;8.07;6.03;;;;;;;-145.18;100.00;46640.88;4993578;28;20105;-71
2022/07/31 01:41:25;;;;;;;13.23;5.20;;;;;;;-145.18;100.00;46640.88;4993760;28;20037;-72
2022/07/31 01:43:53;;;;;;;9.57;6.00;;;;;;;-145.18;100.00;46679.94;4993996;28;20058;-71
2022/07/31 01:46:20;;;;;;;12.57;6.87;;;;;;;-145.18;100.00;46644.78;4993602;28;20045;-71
2022/07/31 01:48:47;;;;;;;7.60;5.57;;;;;;;-145.18;100.00;46676.03;4993135;28;20042;-71
2022/07/31 01:51:14;;;;;;;10.27;6.00;;;;;;;-145.18;100.00;46677.97;4976106;28;20045;-71
2022/07/31 01:53:42;;;;;;;9.17;6.03;;;;;;;-145.18;100.00;46677.97;4993410;28;20391;-72
2022/07/31 01:56:09;;;;;;;12.83;6.10;;;;;;;-145.18;100.00;46660.41;4993639;28;20400;-71
2022/07/31 01:58:38;;;;;;;8.93;6.40;;;;;;;-145.18;100.00;46677.97;4993647;28;20054;-71
2022/07/31 02:03:40;;;;;;;9.23;6.70;;;;;;;-145.18;100.00;46660.41;4428448;23;20570;-72
2022/07/31 02:06:06;;;;;;;12.37;6.23;;;;;;;-145.18;100.00;46660.41;4989908;28;20486;-71
2022/07/31 02:08:33;;;;;;;8.80;6.10;;;;;;;-145.18;100.00;46638.91;4992924;28;20034;-71
2022/07/31 02:11:00;;;;;;;9.77;6.67;;;;;;;-145.18;100.00;46677.97;4993379;28;20033;-71
2022/07/31 02:13:27;;;;;;;14.17;6.77;;;;;;;-145.18;100.00;46640.88;4975789;28;20030;-71
2022/07/31 02:15:55;;;;;;;14.73;7.40;;;;;;;-145.18;100.00;46660.41;4993463;28;20054;-71
2022/07/31 02:18:22;;;;;;;12.27;6.67;;;;;;;-145.18;100.00;46660.41;4993002;28;20041;-72
2022/07/31 02:20:50;;;;;;;10.37;7.27;;;;;;;-145.18;100.00;46640.88;4993519;28;20077;-71
2022/07/31 02:23:17;;;;;;;10.07;6.60;;;;;;;-145.18;100.00;46660.41;4992594;28;20022;-71
2022/07/31 02:25:45;;;;;;;10.50;6.40;;;;;;;-145.18;100.00;46677.97;4993286;28;20065;-71
2022/07/31 02:28:16;;;;;;;16.47;7.43;;;;;;;-145.18;100.00;46660.41;4992486;28;20105;-72
2022/07/31 02:30:43;;;;;;;10.10;6.60;;;;;;;-145.18;100.00;46660.41;4992049;28;20387;-72
2022/07/31 02:33:22;;;;;;;11.80;7.33;;;;;;;-145.18;100.00;46640.88;4992644;28;20036;-71
2022/07/31 02:35:50;;;;;;;13.57;7.50;;;;;;;-145.18;100.00;46660.41;4993383;28;20471;-71
2022/07/31 02:38:19;;;;;;;14.00;6.93;;;;;;;-145.18;100.00;46660.41;4992173;28;20066;-71
2022/07/31 02:40:44;;;;;;;14.13;8.03;;;;;;;-145.18;100.00;46676.03;4993162;28;20033;-71
2022/07/31 02:43:11;;;;;;;13.13;6.87;;;;;;;-145.18;100.00;46677.97;4992427;28;20042;-72
2022/07/31 02:45:37;;;;;;;12.83;7.57;;;;;;;-145.18;100.00;46638.91;4992894;28;20072;-72
2022/07/31 02:48:03;;;;;;;13.67;8.30;;;;;;;-145.18;100.00;46660.41;4991929;28;20054;-72
2022/07/31 02:50:29;;;;;;;13.33;7.63;;;;;;;-145.18;100.00;46640.88;4992999;28;20089;-72
2022/07/31 02:52:55;;;;;;;14.83;7.77;;;;;;;-145.18;100.00;46660.41;4992299;28;20117;-72
2022/07/31 02:55:21;;;;;;;10.57;7.73;;;;;;;-145.18;100.00;46660.41;4992408;28;20068;-72
2022/07/31 02:57:47;;;;;;;14.97;8.90;;;;;;;-145.18;100.00;46660.41;4992322;28;20050;-72
2022/07/31 03:00:14;;;;;;;13.57;7.70;;;;;;;-145.18;100.00;46660.41;4992358;28;20070;-72
2022/07/31 03:02:41;;;;;;;13.83;8.53;;;;;;;-145.18;100.00;46660.41;4992004;28;20062;-72
2022/07/31 03:05:06;;;;;;;14.77;8.47;;;;;;;-145.18;100.00;46660.41;4992476;28;20038;-72
2022/07/31 03:07:32;;;;;;;13.47;8.87;;;;;;;-145.18;100.00;46660.41;4992039;28;20057;-72
2022/07/31 03:09:57;;;;;;;12.63;8.53;;;;;;;-145.18;100.00;46660.41;4991239;28;20058;-72
2022/07/31 03:12:24;;;;;;;11.47;8.87;;;;;;;-145.18;100.00;46660.41;4990583;28;20584;-72
2022/07/31 03:14:51;;;;;;;14.90;8.90;;;;;;;-145.18;100.00;46660.41;4992319;28;20030;-72
2022/07/31 03:17:17;;;;;;;15.40;8.00;;;;;;;-145.18;100.00;46660.41;4991773;28;20030;-71
2022/07/31 03:19:43;;;;;;;11.40;8.17;;;;;;;-145.18;100.00;46660.41;4992474;28;20053;-71
2022/07/31 03:22:08;;;;;;;13.17;8.53;;;;;;;-145.18;100.00;46660.41;4990584;28;20042;-72
2022/07/31 03:24:34;;;;;;;11.03;8.03;;;;;;;-145.18;100.00;46660.41;4992313;28;20080;-72
2022/07/31 03:26:59;;;;;;;14.20;8.53;;;;;;;-145.18;100.00;46660.41;4974669;28;20057;-72
2022/07/31 03:29:25;;;;;;;17.33;8.27;;;;;;;-145.18;100.00;46660.41;4992003;28;20046;-72
2022/07/31 03:31:50;;;;;;;12.07;8.10;;;;;;;-145.18;100.00;46660.41;4991889;28;20038;-71
2022/07/31 03:34:16;;;;;;;13.57;8.93;;;;;;;-145.18;100.00;46660.41;4991496;28;20045;-72
2022/07/31 03:36:41;;;;;;;13.20;8.50;;;;;;;-145.18;100.00;46660.41;4992258;28;20606;-72
2022/07/31 03:39:06;;;;;;;14.43;8.77;;;;;;;-145.18;100.00;46660.41;4991401;28;20211;-72
2022/07/31 03:41:32;;;;;;;13.63;9.80;;;;;;;-145.18;100.00;46660.41;4991619;28;20142;-72
2022/07/31 03:43:58;;;;;;;17.30;9.97;;;;;;;-145.18;100.00;46660.41;4991533;28;20499;-72
2022/07/31 03:46:24;;;;;;;14.40;10.13;;;;;;;-145.18;100.00;46660.41;4958433;28;20126;-71
2022/07/31 03:48:50;;;;;;;18.57;10.30;;;;;;;-145.18;100.00;46660.41;4991014;28;20073;-72
2022/07/31 03:51:16;;;;;;;16.50;11.10;;;;;;;-145.18;100.00;46660.41;4991570;28;20117;-72
2022/07/31 03:53:43;;;;;;;19.40;11.70;;;;;;;-145.18;100.00;46660.41;4990490;28;20486;-72
2022/07/31 03:56:09;;;;;;;20.10;12.50;;;;;;;-145.18;100.00;46660.41;4991317;28;20034;-72
2022/07/31 03:58:35;;;;;;;16.37;12.90;;;;;;;-145.18;100.00;46660.41;4991127;28;20069;-72
2022/07/31 04:01:00;;;;;;;17.80;12.77;;;;;;;-145.18;100.00;46660.41;4991545;28;20478;-72
2022/07/31 04:03:30;;;;;;;18.63;12.77;;;;;;;-145.18;100.00;46660.41;4990882;28;20477;-72
2022/07/31 04:05:55;;;;;;;19.93;12.93;;;;;;;-145.18;100.00;46660.41;4991481;28;20026;-72
2022/07/31 04:08:20;;;;;;;19.10;13.27;;;;;;;-145.18;100.00;46660.41;4990703;28;20053;-72
2022/07/31 04:10:46;;;;;;;17.80;12.33;;;;;;;-145.18;100.00;46660.41;4991612;28;20414;-72
2022/07/31 04:13:11;;;;;;;17.83;12.33;;;;;;;-145.18;100.00;46660.41;4989936;28;20034;-72
2022/07/31 04:15:37;;;;;;;16.57;11.73;;;;;;;-145.18;100.00;46660.41;4991253;28;20133;-72
2022/07/31 04:18:02;;;;;;;14.70;11.43;;;;;;;-145.18;100.00;46660.41;4990907;28;20066;-72
2022/07/31 04:20:27;;;;;;;16.23;10.30;;;;;;;-145.18;100.00;46660.41;4991525;28;20043;-72
2022/07/31 04:22:53;;;;;;;17.43;10.77;;;;;;;-145.18;100.00;46660.41;4990514;28;20141;-72
2022/07/31 04:25:18;;;;;;;18.37;10.20;;;;;;;-145.18;100.00;46660.41;4989717;28;20050;-72
2022/07/31 04:27:44;;;;;;;12.30;9.30;;;;;;;-145.18;100.00;46660.41;5005882;28;20463;-72
2022/07/31 04:30:10;;;;;;;12.77;9.57;;;;;;;-145.18;100.00;46660.41;5010225;28;20707;-71
2022/07/31 04:32:35;;;;;;;12.00;9.20;;;;;;;-145.18;100.00;46660.41;4999218;28;20030;-72
2022/07/31 04:35:01;;;;;;;13.03;9.57;;;;;;;-145.18;100.00;46660.41;4997837;28;20064;-72
2022/07/31 04:37:27;;;;;;;13.83;9.77;;;;;;;-145.18;100.00;46660.41;4981706;28;20117;-73
2022/07/31 04:39:53;;;;;;;16.13;10.00;;;;;;;-145.18;100.00;46660.41;5001639;28;20181;-72
2022/07/31 04:42:19;;;;;;;14.67;9.80;;;;;;;-145.18;100.00;46660.41;4992418;28;20644;-72
2022/07/31 04:44:44;;;;;;;13.00;9.70;;;;;;;-145.18;100.00;46660.41;4998382;28;20034;-72
2022/07/31 04:47:10;;;;;;;17.37;10.60;;;;;;;-145.18;100.00;46660.41;4995744;28;20498;-72
2022/07/31 04:49:36;;;;;;;15.77;9.77;;;;;;;-145.18;100.00;46660.41;5009494;28;20129;-69
2022/07/31 04:52:01;;;;;;;17.13;10.73;;;;;;;-145.18;100.00;46660.41;5010038;28;20144;-69
2022/07/31 04:54:26;;;;;;;13.10;9.80;;;;;;;-145.18;100.00;46658.44;5013590;28;20034;-69
2022/07/31 04:56:52;;;;;;;14.80;10.30;;;;;;;-145.18;100.00;46660.41;5016707;28;20033;-69
2022/07/31 04:59:19;;;;;;;13.77;10.40;;;;;;;-145.18;100.00;46660.41;5015886;28;20088;-69
2022/07/31 05:01:46;;;;;;;12.93;10.10;;;;;;;-145.18;100.00;46660.41;5016734;28;20029;-69
2022/07/31 05:04:12;;;;;;;17.57;9.77;;;;;;;-145.18;100.00;46660.41;4998477;28;20517;-69
2022/07/31 05:06:40;;;;;;;14.97;10.40;;;;;;;-145.18;100.00;46654.53;5003965;28;20026;-70
2022/07/31 05:09:09;;;;;;;15.97;10.63;;;;;;;-145.18;100.00;46660.41;4998015;28;20035;-69
2022/07/31 05:11:35;;;;;;;19.10;10.63;;;;;;;-145.18;100.00;46654.53;4998232;28;20097;-69
2022/07/31 05:14:03;;;;;;;12.80;10.07;;;;;;;-145.18;100.00;46656.50;4995177;28;20034;-69
2022/07/31 05:16:29;;;;;;;14.33;10.40;;;;;;;-145.18;100.00;46654.53;4996521;28;20034;-70
2022/07/31 05:18:55;;;;;;;16.97;10.43;;;;;;;-145.18;100.00;46656.50;4996760;28;20376;-70
2022/07/31 05:21:21;;;;;;;14.27;10.57;;;;;;;-145.18;100.00;46654.53;4996518;28;20026;-70
2022/07/31 05:23:48;;;;;;;16.17;9.90;;;;;;;-145.18;100.00;46656.50;4996495;28;20039;-69
2022/07/31 05:26:16;;;;;;;17.93;10.50;;;;;;;-145.18;100.00;46652.59;4996689;28;20022;-70
2022/07/31 05:28:41;;;;;;;19.17;10.23;;;;;;;-145.18;100.00;46652.59;4996843;28;20030;-70
2022/07/31 05:31:08;;;;;;;16.70;10.13;;;;;;;-145.18;100.00;46652.59;5016442;28;20198;-70
2022/07/31 05:33:33;;;;;;;17.57;9.93;;;;;;;-145.18;100.00;46656.50;5015813;28;20042;-70
2022/07/31 05:35:59;;;;;;;17.33;9.90;;;;;;;-145.18;100.00;46654.53;5016614;28;20037;-71
2022/07/31 05:38:26;;;;;;;14.77;9.57;;;;;;;-145.18;100.00;46652.59;4998612;28;20071;-70
2022/07/31 05:40:52;;;;;;;21.37;10.20;;;;;;;-145.18;100.00;46656.50;5016641;28;20026;-70
2022/07/31 05:43:17;;;;;;;18.27;9.80;;;;;;;-145.18;100.00;46656.50;5008326;28;20041;-71
2022/07/31 05:45:43;;;;;;;17.57;10.30;;;;;;;-145.18;100.00;46654.53;5014006;28;20080;-70
2022/07/31 05:48:08;;;;;;;19.87;11.47;;;;;;;-145.18;100.00;46660.41;5015024;28;20044;-70
2022/07/31 05:50:34;;;;;;;14.93;10.50;;;;;;;-145.18;100.00;46656.50;4991059;28;20487;-70
2022/07/31 05:52:59;;;;;;;17.97;10.80;;;;;;;-145.18;100.00;46654.53;4987653;28;20049;-71
2022/07/31 05:55:25;;;;;;;18.33;11.27;;;;;;;-145.18;100.00;46654.53;4987211;28;20537;-71
2022/07/31 05:57:51;;;;;;;20.23;11.80;;;;;;;-145.18;100.00;46656.50;4990220;28;20077;-70
2022/07/31 06:00:17;;;;;;;21.03;11.90;;;;;;;-145.18;100.00;46656.50;4981163;28;20041;-70
2022/07/31 06:02:44;;;;;;;25.23;12.40;;;;;;;-145.18;100.00;46654.53;4976861;28;20042;-70
2022/07/31 06:05:09;;;;;;;23.17;14.30;;;;;;;-145.18;100.00;46656.50;4975606;28;20114;-70
2022/07/31 06:07:35;;;;;;;27.73;13.27;;;;;;;-145.18;100.00;46656.50;4973572;28;20113;-70
2022/07/31 06:10:01;;;;;;;20.73;12.83;;;;;;;-145.18;100.00;46656.50;4972989;28;20069;-71
2022/07/31 06:12:26;;;;;;;26.83;13.57;;;;;;;-145.18;100.00;46650.63;4972355;28;20066;-71
2022/07/31 06:14:52;;;;;;;24.23;14.23;;;;;;;-145.18;100.00;46656.50;4990673;28;20026;-71
2022/07/31 06:17:17;;;;;;;26.73;15.23;;;;;;;-145.18;100.00;46654.53;4998836;28;20032;-71
2022/07/31 06:19:43;;;;;;;24.87;13.83;;;;;;;-145.18;100.00;46656.50;5012717;28;20058;-70
2022/07/31 06:22:08;;;;;;;24.83;15.50;;;;;;;-145.18;100.00;46654.53;5012756;28;20485;-70
2022/07/31 06:24:33;;;;;;;25.33;13.97;;;;;;;-145.18;100.00;46654.53;5012620;28;20368;-71
2022/07/31 06:27:00;;;;;;;25.40;15.00;;;;;;;-145.18;100.00;46656.50;4989124;28;20040;-71
2022/07/31 06:29:27;;;;;;;28.43;15.50;;;;;;;-145.18;100.00;46654.53;4992769;28;20031;-71
2022/07/31 06:31:55;;;;;;;35.57;16.40;;;;;;;-145.18;100.00;46660.41;4993192;28;20034;-71
2022/07/31 06:34:21;;;;;;;30.57;16.30;;;;;;;-145.18;100.00;46656.50;4992075;28;20030;-70
2022/07/31 06:36:46;;;;;;;24.63;14.97;;;;;;;-145.18;100.00;46652.59;4992887;28;20570;-70
2022/07/31 06:39:12;;;;;;;29.97;16.43;;;;;;;-145.18;100.00;46658.44;4991824;28;20541;-71
2022/07/31 06:41:45;;;;;;;23.83;15.60;;;;;;;-145.18;100.00;46654.53;4992892;28;20154;-71
2022/07/31 06:44:11;;;;;;;28.40;16.07;;;;;;;-145.18;100.00;46660.41;4982393;28;20033;-71
2022/07/31 06:46:36;;;;;;;28.43;16.93;;;;;;;-145.18;100.00;46660.41;4973396;28;20035;-71
2022/07/31 06:49:02;;;;;;;32.13;16.70;;;;;;;-145.18;100.00;46660.41;4972715;28;20081;-71
2022/07/31 06:51:27;;;;;;;33.40;18.77;;;;;;;-145.18;100.00;46654.53;4973653;28;20050;-71
2022/07/31 06:53:53;;;;;;;31.10;17.17;;;;;;;-145.18;100.00;46658.44;4972922;28;20034;-71
2022/07/31 06:56:18;;;;;;;32.07;17.93;;;;;;;-145.18;100.00;46619.38;4972962;28;20177;-72
2022/07/31 06:58:43;;;;;;;30.23;18.23;;;;;;;-145.18;100.00;46615.47;4972871;28;20089;-71
2022/07/31 07:01:09;;;;;;;29.93;18.73;;;;;;;-145.18;100.00;46617.41;4972655;28;20039;-71
2022/07/31 07:03:34;;;;;;;32.93;19.00;;;;;;;-145.18;100.00;46615.47;4972231;28;20065;-71
2022/07/31 07:06:00;;;;;;;33.60;18.83;;;;;;;-145.18;100.00;46619.38;4972749;28;20400;-71
2022/07/31 07:08:25;;;;;;;32.20;20.10;;;;;;;-145.18;100.00;46619.38;4978237;28;20042;-71
2022/07/31 07:10:50;;;;;;;36.37;19.20;;;;;;;-145.18;100.00;46621.31;4992378;28;20155;-71
2022/07/31 07:13:16;;;;;;;33.27;19.30;;;;;;;-145.18;100.00;46619.38;4990460;28;20030;-71
2022/07/31 07:15:41;;;;;;;28.93;18.33;;;;;;;-145.18;100.00;46617.41;4990620;28;20065;-71
2022/07/31 07:18:06;;;;;;;31.57;19.90;;;;;;;-145.18;100.00;46621.31;4990195;28;20026;-71
2022/07/31 07:20:32;;;;;;;32.37;19.87;;;;;;;-145.18;100.00;46621.31;4989325;28;20486;-71
2022/07/31 07:22:58;;;;;;;35.93;21.00;;;;;;;-145.18;100.00;46617.41;4991050;28;20065;-72
2022/07/31 07:25:23;;;;;;;29.50;18.37;;;;;;;-145.18;100.00;46623.28;4991531;28;20113;-71
2022/07/31 07:27:48;;;;;;;30.00;20.07;;;;;;;-145.18;100.00;46621.31;4991741;28;20379;-71
2022/07/31 07:30:14;;;;;;;35.30;19.90;;;;;;;-145.18;100.00;46621.31;4991535;28;20093;-71
2022/07/31 07:32:39;;;;;;;29.63;20.00;;;;;;;-145.18;100.00;46625.22;4991673;28;20577;-71
2022/07/31 07:35:05;;;;;;;31.07;19.77;;;;;;;-145.18;100.00;46625.22;4991181;28;20047;-71
2022/07/31 07:37:31;;;;;;;31.23;19.27;;;;;;;-145.18;100.00;46621.31;4991577;28;20672;-71
2022/07/31 07:39:57;;;;;;;28.93;19.47;;;;;;;-145.18;100.00;46617.41;4991435;28;20112;-71
2022/07/31 07:42:23;;;;;;;27.33;17.20;;;;;;;-145.18;100.00;46623.28;4991523;28;20033;-71
2022/07/31 07:44:48;;;;;;;29.60;17.90;;;;;;;-145.18;100.00;46629.13;4989939;28;20367;-72
2022/07/31 07:47:13;;;;;;;27.03;17.80;;;;;;;-145.18;100.00;46627.19;4989063;28;20034;-71
2022/07/31 07:49:39;;;;;;;29.53;18.13;;;;;;;-145.18;100.00;46623.28;4987701;28;20026;-71
2022/07/31 07:52:04;;;;;;;27.73;18.73;;;;;;;-145.18;100.00;46625.22;4980177;28;20403;-71
2022/07/31 07:54:30;;;;;;;29.07;18.63;;;;;;;-145.18;100.00;46627.19;4978654;28;20052;-72
2022/07/31 07:56:55;;;;;;;26.73;17.73;;;;;;;-145.18;100.00;46623.28;4986523;28;20073;-71
2022/07/31 07:59:21;;;;;;;22.17;17.07;;;;;;;-145.18;100.00;46625.22;4985374;28;20420;-71
2022/07/31 08:01:46;;;;;;;24.77;16.70;;;;;;;-145.18;100.00;46623.28;4981962;28;20494;-71
2022/07/31 08:04:11;;;;;;;23.77;17.70;;;;;;;-145.18;100.00;46627.19;4979285;28;20496;-71
2022/07/31 08:06:37;;;;;;;22.47;16.73;;;;;;;-145.18;100.00;46627.19;4981361;28;20041;-71
2022/07/31 08:09:02;;;;;;;25.00;16.67;;;;;;;-145.18;100.00;46629.13;4980797;28;20063;-71
2022/07/31 08:11:28;;;;;;;25.13;16.83;;;;;;;-145.18;100.00;46627.19;4980088;28;20042;-71
2022/07/31 08:13:54;;;;;;;24.07;16.13;;;;;;;-145.18;100.00;46625.22;4963515;28;20506;-71
2022/07/31 08:16:20;;;;;;;22.20;16.17;;;;;;;-145.18;100.00;46627.19;4980829;28;20071;-71
2022/07/31 08:18:47;;;;;;;23.73;15.23;;;;;;;-145.18;100.00;46623.28;4981532;28;20117;-71
2022/07/31 08:21:13;;;;;;;26.77;16.70;;;;;;;-145.18;100.00;46621.31;4990668;28;20034;-72
2022/07/31 08:23:38;;;;;;;27.10;16.53;;;;;;;-145.18;100.00;46623.28;4987131;28;20037;-71
2022/07/31 08:26:04;;;;;;;23.53;16.80;;;;;;;-145.18;100.00;46625.22;4990743;28;20483;-72
2022/07/31 08:28:29;;;;;;;24.67;17.07;;;;;;;-145.18;100.00;46621.31;4987404;28;20054;-72
2022/07/31 08:30:55;;;;;;;31.33;19.30;;;;;;;-145.18;100.00;46623.28;4983907;28;20448;-72
2022/07/31 08:33:20;;;;;;;26.47;20.07;;;;;;;-145.18;100.00;46619.38;4971135;28;20042;-72
2022/07/31 08:35:48;;;;;;;29.33;21.87;;;;;;;-145.18;100.00;46617.41;4972057;28;20463;-72
2022/07/31 08:38:15;;;;;;;30.57;22.07;;;;;;;-145.18;100.00;46619.38;4953625;28;20138;-71
2022/07/31 08:40:41;;;;;;;30.57;22.70;;;;;;;-145.18;100.00;46615.47;4971657;28;20078;-72
2022/07/31 08:43:06;;;;;;;32.90;23.03;;;;;;;-145.18;100.00;46619.38;4974850;28;20034;-72
2022/07/31 08:45:36;;;;;;;30.37;22.93;;;;;;;-145.18;100.00;46615.47;4987947;28;20038;-72
2022/07/31 08:48:03;;;;;;;27.50;21.40;;;;;;;-145.18;100.00;46617.41;4986338;28;20030;-72
2022/07/31 08:50:29;;;;;;;31.03;21.03;;;;;;;-145.18;100.00;46617.41;4970848;28;20042;-72
2022/07/31 08:52:56;;;;;;;28.20;20.57;;;;;;;-145.18;100.00;46619.38;4971015;28;20022;-72
2022/07/31 08:55:22;;;;;;;28.23;19.97;;;;;;;-145.18;100.00;46623.28;4983406;28;20093;-72
2022/07/31 08:57:47;;;;;;;24.90;19.60;;;;;;;-145.18;100.00;46619.38;4990832;28;20282;-72
2022/07/31 09:00:16;;;;;;;28.43;18.20;;;;;;;-145.18;100.00;46621.31;4989863;28;20452;-71
2022/07/31 09:02:43;;;;;;;24.43;18.53;;;;;;;-145.18;100.00;46621.31;4990444;28;20499;-72
2022/07/31 09:05:09;;;;;;;24.47;18.50;;;;;;;-145.18;100.00;46623.28;4990115;28;20037;-72
2022/07/31 09:07:34;;;;;;;28.47;17.57;;;;;;;-145.18;100.00;46625.22;4981172;28;20030;-72
2022/07/31 09:10:00;;;;;;;21.63;17.27;;;;;;;-145.18;100.00;46625.22;4988296;28;20092;-72
2022/07/31 09:12:32;;;;;;;22.40;17.17;;;;;;;-145.18;100.00;46625.22;4990396;28;20030;-72
2022/07/31 09:14:58;;;;;;;22.83;17.13;;;;;;;-145.18;100.00;46629.13;4990046;28;20432;-72
2022/07/31 09:17:39;;;;;;;27.00;17.70;;;;;;;-145.18;100.00;46629.13;4972169;28;20042;-72
2022/07/31 09:20:15;;;;;;;22.50;16.10;;;;;;;-145.18;100.00;46627.19;4988705;28;20030;-72
2022/07/31 09:22:40;;;;;;;19.50;15.00;;;;;;;-145.18;100.00;46631.09;4974276;28;20122;-72
2022/07/31 09:25:11;;;;;;;21.47;15.13;;;;;;;-145.18;100.00;46631.09;4989712;28;20538;-72
2022/07/31 09:27:37;;;;;;;22.73;14.07;;;;;;;-145.18;100.00;46631.09;4990464;28;20625;-72
2022/07/31 09:30:03;;;;;;;18.27;14.33;;;;;;;-145.18;100.00;46629.13;4987162;28;20049;-71
2022/07/31 09:32:28;;;;;;;20.13;12.80;;;;;;;-145.18;100.00;46636.94;4980404;28;20040;-72
2022/07/31 09:35:06;;;;;;;19.20;13.40;;;;;;;-145.18;100.00;46638.91;4988746;28;20430;-72
2022/07/31 09:37:31;;;;;;;17.67;12.50;;;;;;;-145.18;100.00;46636.94;4990658;28;20103;-72
2022/07/31 09:39:57;;;;;;;17.93;13.70;;;;;;;-145.18;100.00;46638.91;4978304;28;20065;-72
2022/07/31 09:42:34;;;;;;;20.07;12.80;;;;;;;-145.18;100.00;46636.94;4993450;28;20041;-72
2022/07/31 09:45:00;;;;;;;14.77;12.60;;;;;;;-145.18;100.00;46638.91;4993527;28;20042;-72
2022/07/31 09:47:27;;;;;;;17.23;11.57;;;;;;;-145.18;100.00;46638.91;4994166;28;20034;-72
2022/07/31 09:49:59;;;;;;;22.03;13.10;;;;;;;-145.18;100.00;46636.94;4992976;28;20042;-72
2022/07/31 09:52:26;;;;;;;20.93;14.30;;;;;;;-145.18;100.00;46638.91;4994096;28;20077;-72
2022/07/31 09:55:11;;;;;;;17.80;14.17;;;;;;;-145.18;100.00;46638.91;4993910;28;20030;-72
2022/07/31 09:57:37;;;;;;;21.53;14.83;;;;;;;-145.18;100.00;46642.81;4994057;28;20402;-72
2022/07/31 10:00:08;;;;;;;17.10;14.30;;;;;;;-145.18;100.00;46646.72;4992480;28;20029;-72
2022/07/31 10:02:34;;;;;;;18.17;14.33;;;;;;;-145.18;100.00;46642.81;4996041;28;20451;-72
2022/07/31 10:05:00;;;;;;;18.40;14.00;;;;;;;-145.18;100.00;46642.81;4997068;28;20027;-72
2022/07/31 10:07:28;;;;;;;16.63;14.50;;;;;;;-145.18;100.00;46644.78;4990262;28;20038;-72
2022/07/31 10:09:57;;;;;;;19.23;14.23;;;;;;;-145.18;100.00;46644.78;4987295;28;20076;-72
2022/07/31 10:12:27;;;;;;;18.93;14.57;;;;;;;-145.18;100.00;46646.72;4991522;28;20497;-71
2022/07/31 10:14:55;;;;;;;19.87;14.47;;;;;;;-145.18;100.00;46646.72;4976250;28;20109;-71
2022/07/31 10:17:28;;;;;;;19.93;14.60;;;;;;;-145.18;100.00;46648.69;5002498;28;20030;-71
2022/07/31 10:19:59;;;;;;;19.07;14.13;;;;;;;-145.18;100.00;46640.88;4993248;28;20026;-71
2022/07/31 10:22:30;;;;;;;16.93;14.77;;;;;;;-145.18;100.00;46642.81;4992907;28;20054;-71
2022/07/31 10:25:00;;;;;;;22.70;15.07;;;;;;;-145.18;100.00;46640.88;4991525;28;20040;-71
2022/07/31 10:27:27;;;;;;;19.57;14.00;;;;;;;-145.18;100.00;46640.88;4990919;28;20121;-72
2022/07/31 10:29:52;;;;;;;19.13;14.43;;;;;;;-145.18;100.00;46642.81;4992062;28;20038;-71
2022/07/31 10:32:18;;;;;;;19.33;13.10;;;;;;;-145.18;100.00;46644.78;4992901;28;20049;-71
2022/07/31 10:34:44;;;;;;;12.63;11.33;;;;;;;-145.18;100.00;46646.72;4992644;28;20034;-71
2022/07/31 10:37:19;;;;;;;12.03;10.70;;;;;;;-145.18;100.00;46646.72;4990108;28;20035;-72
2022/07/31 10:39:48;;;;;;;13.77;9.40;;;;;;;-145.18;100.00;46642.81;4992863;28;20086;-72
2022/07/31 10:42:41;;;;;;;14.47;9.60;;;;;;;-145.18;100.00;46640.88;4992424;28;20038;-72
2022/07/31 10:45:09;;;;;;;16.33;10.20;;;;;;;-145.18;100.00;46644.78;4992094;28;20093;-72
2022/07/31 10:47:35;;;;;;;12.17;8.47;;;;;;;-145.18;100.00;46644.78;4992821;28;20038;-72
2022/07/31 10:50:01;;;;;;;12.20;8.50;;;;;;;-145.18;100.00;46644.78;4991182;28;20647;-72
2022/07/31 10:52:28;;;;;;;8.47;7.13;;;;;;;-145.18;100.00;46646.72;4991996;28;20788;-72
2022/07/31 10:54:57;;;;;;;10.40;7.23;;;;;;;-145.18;100.00;46646.72;4992147;28;20034;-72
2022/07/31 10:57:40;;;;;;;10.50;7.27;;;;;;;-145.18;100.00;46650.63;4992154;28;20030;-72
2022/07/31 11:00:13;;;;;;;12.57;7.83;;;;;;;-145.18;100.00;46646.72;4989328;28;20054;-72